Terminal Aerodrome Forecast
Issued by NWS

Home | Current Version | Previous Version | Text Only | Print | Product List | Glossary On
Versions: 1 2 3 4 5 6 7 8 9 10 11 12 13 14 15 16 17 18 19 20 21 22 23
000
FTUS43 KILX 231400 AAB
TAFBMI
TAF AMD
KBMI 231434Z 2315/2412 10005KT 4SM BR BKN003
     FM231500 10005KT P6SM SCT003 BKN120
     FM231700 10005KT P6SM VCTS SCT025CB BKN120
     FM232000 07006KT P6SM VCTS SCT035CB BKN250
     FM240000 09005KT P6SM BKN250
     FM240900 10004KT 3SM BR SCT250=

USA.gov is the U.S. government's official web portal to all federal, state and local government web resources and services.